TAA523 YMML-YMLT
Flight info
| Callsign | TAA523 |
|---|---|
| Flight time | 0h 42m |
| Altitude | 31000 |
| Route | ML H169 IRSOM W105 LT |
| Aircraft | B722/M-SDFGRWY/S |
Departure
| Time | 2026-04-24 05:54 |
|---|---|
| Airport | Melbourne Airport (YMML) |
Arrival
| Time | 2026-04-24 06:37 |
|---|---|
| Airport | Launceston Airport (YMLT) |
| Time | Latitude | Longitude | Altitude | Speed | Heading |
|---|---|---|---|---|---|
| 2026-04-24 05:37 | -37.67383 | 144.84510 | 384 ft | 0 kts | 351° |
| 2026-04-24 05:49 | -37.67394 | 144.84512 | 384 ft | 2 kts | 352° |
| 2026-04-24 05:50 | -37.67409 | 144.84515 | 384 ft | 2 kts | 352° |
| 2026-04-24 05:50 | -37.67425 | 144.84518 | 383 ft | 2 kts | 352° |
| 2026-04-24 05:50 | -37.67441 | 144.84521 | 383 ft | 2 kts | 352° |
| 2026-04-24 05:50 | -37.67455 | 144.84529 | 382 ft | 2 kts | 308° |
| 2026-04-24 05:51 | -37.67459 | 144.84546 | 383 ft | 0 kts | 265° |
| 2026-04-24 05:51 | -37.67464 | 144.84494 | 382 ft | 11 kts | 263° |
| 2026-04-24 05:51 | -37.67480 | 144.84372 | 380 ft | 16 kts | 239° |
| 2026-04-24 05:52 | -37.67600 | 144.84342 | 376 ft | 22 kts | 168° |
| 2026-04-24 05:52 | -37.67764 | 144.84377 | 375 ft | 26 kts | 185° |
| 2026-04-24 05:52 | -37.67857 | 144.84268 | 369 ft | 17 kts | 263° |
| 2026-04-24 05:52 | -37.67874 | 144.84109 | 363 ft | 20 kts | 262° |
| 2026-04-24 05:53 | -37.67860 | 144.83975 | 362 ft | 12 kts | 328° |
| 2026-04-24 05:53 | -37.67712 | 144.83939 | 364 ft | 41 kts | 352° |
| 2026-04-24 05:53 | -37.67170 | 144.83836 | 384 ft | 115 kts | 352° |
| 2026-04-24 05:53 | -37.66200 | 144.83650 | 458 ft | 164 kts | 352° |
| 2026-04-24 05:54 | -37.64977 | 144.83384 | 634 ft | 186 kts | 352° |
| 2026-04-24 05:54 | -37.63689 | 144.83154 | 1448 ft | 178 kts | 353° |
| 2026-04-24 05:54 | -37.62509 | 144.82941 | 2328 ft | 183 kts | 353° |
| 2026-04-24 05:54 | -37.61114 | 144.82672 | 2482 ft | 220 kts | 352° |
| 2026-04-24 05:55 | -37.59551 | 144.82453 | 3345 ft | 227 kts | 2° |
| 2026-04-24 05:55 | -37.58065 | 144.82931 | 4841 ft | 224 kts | 18° |
| 2026-04-24 05:55 | -37.56587 | 144.83769 | 5810 ft | 241 kts | 23° |
| 2026-04-24 05:55 | -37.55096 | 144.84743 | 7004 ft | 243 kts | 24° |
| 2026-04-24 05:56 | -37.53646 | 144.85894 | 8041 ft | 252 kts | 41° |
| 2026-04-24 05:56 | -37.52761 | 144.87829 | 9155 ft | 264 kts | 76° |
| 2026-04-24 05:56 | -37.52793 | 144.90156 | 10282 ft | 270 kts | 100° |
| 2026-04-24 05:56 | -37.53290 | 144.92459 | 11202 ft | 279 kts | 113° |
| 2026-04-24 05:57 | -37.54295 | 144.94548 | 12184 ft | 281 kts | 130° |
| 2026-04-24 05:57 | -37.55794 | 144.96155 | 13093 ft | 288 kts | 149° |
| 2026-04-24 05:57 | -37.57729 | 144.97210 | 13338 ft | 320 kts | 164° |
| 2026-04-24 05:57 | -37.60002 | 144.97830 | 13677 ft | 344 kts | 172° |
| 2026-04-24 05:58 | -37.62325 | 144.98243 | 14961 ft | 334 kts | 172° |
| 2026-04-24 05:58 | -37.64637 | 144.98782 | 15786 ft | 343 kts | 168° |
| 2026-04-24 05:58 | -37.66975 | 144.99471 | 16690 ft | 346 kts | 167° |
| 2026-04-24 05:58 | -37.69308 | 145.00110 | 17599 ft | 350 kts | 169° |
| 2026-04-24 05:59 | -37.71748 | 145.00699 | 18519 ft | 354 kts | 169° |
| 2026-04-24 05:59 | -37.74179 | 145.01305 | 19321 ft | 359 kts | 168° |
| 2026-04-24 05:59 | -37.76603 | 145.01952 | 20067 ft | 363 kts | 169° |
| 2026-04-24 05:59 | -37.79099 | 145.02611 | 20804 ft | 369 kts | 169° |
| 2026-04-24 06:00 | -37.81635 | 145.03258 | 21568 ft | 374 kts | 170° |
| 2026-04-24 06:00 | -37.84210 | 145.03918 | 22247 ft | 381 kts | 169° |
| 2026-04-24 06:00 | -37.86818 | 145.04599 | 23041 ft | 385 kts | 169° |
| 2026-04-24 06:00 | -37.89462 | 145.05292 | 23713 ft | 391 kts | 171° |
| 2026-04-24 06:01 | -37.92143 | 145.05983 | 24426 ft | 394 kts | 171° |
| 2026-04-24 06:01 | -37.94842 | 145.06684 | 25067 ft | 398 kts | 169° |
| 2026-04-24 06:01 | -37.97565 | 145.07396 | 25771 ft | 400 kts | 171° |
| 2026-04-24 06:01 | -38.00312 | 145.08108 | 26407 ft | 404 kts | 170° |
| 2026-04-24 06:02 | -38.03076 | 145.08827 | 27100 ft | 407 kts | 171° |
| 2026-04-24 06:02 | -38.05863 | 145.09558 | 27738 ft | 411 kts | 171° |
| 2026-04-24 06:02 | -38.08676 | 145.10298 | 28392 ft | 414 kts | 171° |
| 2026-04-24 06:02 | -38.11519 | 145.11034 | 29047 ft | 418 kts | 171° |
| 2026-04-24 06:03 | -38.14340 | 145.11768 | 29680 ft | 422 kts | 171° |
| 2026-04-24 06:03 | -38.17227 | 145.12528 | 30319 ft | 426 kts | 171° |
| 2026-04-24 06:03 | -38.20143 | 145.13294 | 30861 ft | 430 kts | 171° |
| 2026-04-24 06:03 | -38.23083 | 145.14061 | 31371 ft | 435 kts | 171° |
| 2026-04-24 06:04 | -38.26108 | 145.14850 | 31373 ft | 453 kts | 171° |
| 2026-04-24 06:04 | -38.29244 | 145.15675 | 31379 ft | 470 kts | 171° |
| 2026-04-24 06:04 | -38.32504 | 145.16535 | 31384 ft | 486 kts | 171° |
| 2026-04-24 06:04 | -38.35861 | 145.17417 | 31387 ft | 499 kts | 171° |
| 2026-04-24 06:05 | -38.42740 | 145.19233 | 31374 ft | 505 kts | 171° |
| 2026-04-24 06:05 | -38.49637 | 145.21054 | 31374 ft | 506 kts | 170° |
| 2026-04-24 06:06 | -38.56401 | 145.23649 | 31372 ft | 509 kts | 161° |
| 2026-04-24 06:06 | -38.63021 | 145.26861 | 31376 ft | 508 kts | 164° |
| 2026-04-24 06:07 | -38.69755 | 145.29616 | 31375 ft | 509 kts | 163° |
| 2026-04-24 06:07 | -38.76419 | 145.32709 | 31376 ft | 509 kts | 163° |
| 2026-04-24 06:08 | -38.83138 | 145.35581 | 31376 ft | 509 kts | 163° |
| 2026-04-24 06:08 | -38.89816 | 145.38612 | 31382 ft | 509 kts | 163° |
| 2026-04-24 06:09 | -38.96487 | 145.41531 | 31379 ft | 509 kts | 163° |
| 2026-04-24 06:09 | -39.03179 | 145.44541 | 31380 ft | 509 kts | 163° |
| 2026-04-24 06:10 | -39.09877 | 145.47509 | 31385 ft | 509 kts | 163° |
| 2026-04-24 06:11 | -39.19919 | 145.52008 | 31384 ft | 509 kts | 163° |
| 2026-04-24 06:11 | -39.26618 | 145.55015 | 31388 ft | 510 kts | 163° |
| 2026-04-24 06:12 | -39.33320 | 145.58024 | 31391 ft | 510 kts | 163° |
| 2026-04-24 06:12 | -39.40018 | 145.61040 | 31391 ft | 510 kts | 163° |
| 2026-04-24 06:13 | -39.46668 | 145.64042 | 31388 ft | 510 kts | 163° |
| 2026-04-24 06:13 | -39.53364 | 145.67067 | 31389 ft | 510 kts | 163° |
| 2026-04-24 06:14 | -39.60063 | 145.70103 | 31384 ft | 510 kts | 163° |
| 2026-04-24 06:14 | -39.66766 | 145.73147 | 31386 ft | 510 kts | 163° |
| 2026-04-24 06:15 | -39.73469 | 145.76195 | 31387 ft | 510 kts | 163° |
| 2026-04-24 06:15 | -39.80172 | 145.79250 | 31386 ft | 510 kts | 163° |
| 2026-04-24 06:16 | -39.86873 | 145.82312 | 31388 ft | 510 kts | 163° |
| 2026-04-24 06:16 | -39.93573 | 145.85378 | 31387 ft | 511 kts | 163° |
| 2026-04-24 06:17 | -40.00235 | 145.88433 | 31395 ft | 511 kts | 163° |
| 2026-04-24 06:17 | -40.06935 | 145.91537 | 31387 ft | 511 kts | 162° |
| 2026-04-24 06:18 | -40.13646 | 145.94645 | 31387 ft | 511 kts | 163° |
| 2026-04-24 06:18 | -40.20347 | 145.97763 | 31388 ft | 511 kts | 163° |
| 2026-04-24 06:19 | -40.27049 | 146.00881 | 31387 ft | 512 kts | 163° |
| 2026-04-24 06:19 | -40.33760 | 146.04013 | 31270 ft | 513 kts | 163° |
| 2026-04-24 06:19 | -40.37112 | 146.05580 | 30643 ft | 510 kts | 163° |
| 2026-04-24 06:20 | -40.40428 | 146.07135 | 29937 ft | 502 kts | 163° |
| 2026-04-24 06:20 | -40.43703 | 146.08667 | 29275 ft | 497 kts | 163° |
| 2026-04-24 06:20 | -40.46944 | 146.10185 | 28625 ft | 494 kts | 162° |
| 2026-04-24 06:20 | -40.50173 | 146.11702 | 27972 ft | 489 kts | 162° |
| 2026-04-24 06:21 | -40.53365 | 146.13201 | 27332 ft | 485 kts | 162° |
| 2026-04-24 06:21 | -40.56534 | 146.14691 | 26698 ft | 482 kts | 162° |
| 2026-04-24 06:21 | -40.59638 | 146.16155 | 26073 ft | 478 kts | 162° |
| 2026-04-24 06:21 | -40.62755 | 146.17621 | 25450 ft | 474 kts | 162° |
| 2026-04-24 06:22 | -40.65890 | 146.19100 | 24819 ft | 471 kts | 162° |
| 2026-04-24 06:22 | -40.68922 | 146.20534 | 24223 ft | 467 kts | 162° |
| 2026-04-24 06:22 | -40.71979 | 146.21976 | 23547 ft | 465 kts | 162° |
| 2026-04-24 06:22 | -40.75011 | 146.23411 | 22931 ft | 461 kts | 162° |
| 2026-04-24 06:23 | -40.78054 | 146.24854 | 22320 ft | 457 kts | 162° |
| 2026-04-24 06:23 | -40.80994 | 146.26246 | 21729 ft | 453 kts | 162° |
| 2026-04-24 06:23 | -40.83948 | 146.27647 | 21134 ft | 449 kts | 162° |
| 2026-04-24 06:23 | -40.85934 | 146.28592 | 20732 ft | 447 kts | 162° |
| 2026-04-24 06:24 | -40.89789 | 146.30423 | 19953 ft | 442 kts | 162° |
| 2026-04-24 06:24 | -40.92672 | 146.31794 | 19387 ft | 439 kts | 162° |
| 2026-04-24 06:24 | -40.95537 | 146.33161 | 18805 ft | 436 kts | 162° |
| 2026-04-24 06:24 | -40.98377 | 146.34514 | 18190 ft | 432 kts | 162° |
| 2026-04-24 06:25 | -41.00244 | 146.35405 | 17812 ft | 430 kts | 162° |
| 2026-04-24 06:25 | -41.03045 | 146.36744 | 17245 ft | 426 kts | 162° |
| 2026-04-24 06:25 | -41.05829 | 146.38071 | 16688 ft | 423 kts | 162° |
| 2026-04-24 06:25 | -41.08586 | 146.39391 | 16137 ft | 420 kts | 162° |
| 2026-04-24 06:26 | -41.11324 | 146.40704 | 15592 ft | 416 kts | 162° |
| 2026-04-24 06:26 | -41.14024 | 146.42060 | 15034 ft | 414 kts | 157° |
| 2026-04-24 06:26 | -41.16472 | 146.44055 | 14498 ft | 415 kts | 143° |
| 2026-04-24 06:26 | -41.18543 | 146.46689 | 13926 ft | 412 kts | 130° |
| 2026-04-24 06:27 | -41.20253 | 146.49721 | 13374 ft | 408 kts | 125° |
| 2026-04-24 06:27 | -41.21785 | 146.52864 | 12843 ft | 404 kts | 121° |
| 2026-04-24 06:27 | -41.23256 | 146.56029 | 12308 ft | 400 kts | 123° |
| 2026-04-24 06:27 | -41.24792 | 146.59082 | 11789 ft | 395 kts | 125° |
| 2026-04-24 06:28 | -41.26346 | 146.62078 | 11266 ft | 392 kts | 124° |
| 2026-04-24 06:28 | -41.27832 | 146.65085 | 10756 ft | 386 kts | 123° |
| 2026-04-24 06:28 | -41.29281 | 146.68070 | 10242 ft | 383 kts | 123° |
| 2026-04-24 06:28 | -41.30747 | 146.71004 | 9710 ft | 379 kts | 124° |
| 2026-04-24 06:29 | -41.32209 | 146.73914 | 9207 ft | 378 kts | 123° |
| 2026-04-24 06:29 | -41.33650 | 146.76831 | 8708 ft | 375 kts | 123° |
| 2026-04-24 06:29 | -41.35072 | 146.79726 | 8221 ft | 373 kts | 123° |
| 2026-04-24 06:29 | -41.36498 | 146.82602 | 7704 ft | 371 kts | 123° |
| 2026-04-24 06:30 | -41.37904 | 146.85405 | 6532 ft | 366 kts | 123° |
| 2026-04-24 06:30 | -41.39366 | 146.88299 | 4175 ft | 391 kts | 123° |
| 2026-04-24 06:30 | -41.40828 | 146.91194 | 3715 ft | 357 kts | 123° |
| 2026-04-24 06:30 | -41.42189 | 146.93933 | 3220 ft | 355 kts | 123° |
| 2026-04-24 06:31 | -41.43523 | 146.96676 | 2070 ft | 349 kts | 121° |
| 2026-04-24 06:31 | -41.44740 | 146.99309 | 2469 ft | 346 kts | 122° |
| 2026-04-24 06:31 | -41.46083 | 147.01938 | 2322 ft | 326 kts | 123° |
| 2026-04-24 06:31 | -41.47265 | 147.04279 | 2336 ft | 290 kts | 124° |
| 2026-04-24 06:32 | -41.48316 | 147.06393 | 2355 ft | 259 kts | 122° |
| 2026-04-24 06:32 | -41.49259 | 147.08306 | 2362 ft | 235 kts | 123° |
| 2026-04-24 06:32 | -41.50168 | 147.10053 | 2373 ft | 225 kts | 124° |
| 2026-04-24 06:32 | -41.51033 | 147.11737 | 2368 ft | 225 kts | 123° |
| 2026-04-24 06:33 | -41.51930 | 147.13442 | 2380 ft | 225 kts | 125° |
| 2026-04-24 06:33 | -41.52878 | 147.15097 | 2469 ft | 226 kts | 128° |
| 2026-04-24 06:33 | -41.53941 | 147.16686 | 2165 ft | 227 kts | 129° |
| 2026-04-24 06:33 | -41.55078 | 147.18127 | 1991 ft | 214 kts | 144° |
| 2026-04-24 06:34 | -41.56439 | 147.19091 | 1965 ft | 227 kts | 156° |
| 2026-04-24 06:34 | -41.57844 | 147.19890 | 2179 ft | 223 kts | 158° |
| 2026-04-24 06:34 | -41.59175 | 147.20630 | 2875 ft | 187 kts | 153° |
| 2026-04-24 06:34 | -41.60107 | 147.21827 | 3076 ft | 192 kts | 119° |
| 2026-04-24 06:35 | -41.60290 | 147.23539 | 3083 ft | 179 kts | 69° |
| 2026-04-24 06:35 | -41.59662 | 147.24751 | 2768 ft | 153 kts | 30° |
| 2026-04-24 06:35 | -41.58665 | 147.24831 | 2161 ft | 150 kts | 332° |
| 2026-04-24 06:35 | -41.57832 | 147.24007 | 1577 ft | 146 kts | 321° |
| 2026-04-24 06:36 | -41.57026 | 147.23230 | 1203 ft | 141 kts | 329° |
| 2026-04-24 06:36 | -41.56215 | 147.22569 | 889 ft | 138 kts | 331° |
| 2026-04-24 06:36 | -41.55446 | 147.21899 | 692 ft | 124 kts | 329° |
| 2026-04-24 06:36 | -41.54784 | 147.21342 | 592 ft | 97 kts | 326° |
| 2026-04-24 06:37 | -41.54367 | 147.20978 | 597 ft | 49 kts | 327° |
| 2026-04-24 06:37 | -41.54278 | 147.20899 | 596 ft | 4 kts | 305° |
| 2026-04-24 06:37 | -41.54295 | 147.20835 | 590 ft | 16 kts | 226° |
| 2026-04-24 06:37 | -41.54314 | 147.20809 | 588 ft | 0 kts | 234° |